Time;durP1;ratioP1;P1;durP2;ratioP2;P2;SDS_P1;SDS_P2;PMS_P1;PMS_P2;Temp;Humidity;BMP_temperature;BMP_pressure;BME280_temperature;BME280_humidity;BME280_pressure;Samples;Min_cycle;Max_cycle;Signal;HPM_P1;HPM_P2
2023/03/20 00:02:30;;;;;;;62.20;29.00;;;;;;;13.42;32.51;100561.66;108213;1254;60554;-66
2023/03/20 00:04:59;;;;;;;61.60;29.20;;;;;;;13.37;32.63;100555.17;108206;1253;74960;-66
2023/03/20 00:07:28;;;;;;;52.20;25.90;;;;;;;13.37;32.66;100554.65;108251;1254;71538;-66
2023/03/20 00:10:01;;;;;;;62.10;30.80;;;;;;;13.56;32.44;100551.33;108213;1256;73862;-67
2023/03/20 00:12:50;;;;;;;60.40;29.90;;;;;;;13.57;32.33;100548.14;108205;1253;63239;-66
2023/03/20 00:15:25;;;;;;;52.40;26.40;;;;;;;13.43;32.55;100548.38;108188;1253;61487;-66
2023/03/20 00:17:53;;;;;;;58.40;28.60;;;;;;;13.60;32.33;100543.94;108232;1254;73387;-66
2023/03/20 00:20:28;;;;;;;64.90;28.60;;;;;;;13.75;32.08;100544.73;108197;1256;70534;-66
2023/03/20 00:22:58;;;;;;;56.40;28.30;;;;;;;13.88;32.00;100541.34;108176;1253;73677;-66
2023/03/20 00:25:28;;;;;;;65.50;31.80;;;;;;;13.78;32.01;100543.88;108215;1253;61794;-67
2023/03/20 00:28:03;;;;;;;58.10;28.90;;;;;;;13.89;31.90;100541.13;108180;1257;61493;-65
2023/03/20 00:30:34;;;;;;;53.40;26.90;;;;;;;13.98;31.77;100536.81;108225;1253;75036;-66
2023/03/20 00:33:02;;;;;;;54.20;29.10;;;;;;;14.11;31.65;100538.22;108060;1259;70810;-66
2023/03/20 00:35:32;;;;;;;52.70;27.00;;;;;;;14.13;31.57;100535.47;108169;1254;72960;-66
2023/03/20 00:38:02;;;;;;;63.60;32.40;;;;;;;14.27;31.38;100534.13;108200;1253;62021;-67
2023/03/20 00:40:30;;;;;;;71.50;33.90;;;;;;;13.75;31.97;100527.59;108096;1253;61437;-64
2023/03/20 00:43:00;;;;;;;68.40;31.90;;;;;;;13.52;32.17;100527.36;108051;1254;74817;-65
2023/03/20 00:45:30;;;;;;;70.30;33.90;;;;;;;13.41;32.35;100522.19;108218;1254;70303;-66
2023/03/20 00:47:59;;;;;;;84.40;35.30;;;;;;;13.27;32.48;100521.20;108109;1254;70960;-66
2023/03/20 00:50:29;;;;;;;49.20;24.70;;;;;;;13.13;32.70;100522.80;108175;1254;61984;-65
2023/03/20 00:52:58;;;;;;;66.00;31.00;;;;;;;13.34;32.65;100522.14;108182;1254;61260;-64
2023/03/20 00:55:27;;;;;;;63.50;31.70;;;;;;;13.04;33.10;100524.41;108135;1254;73056;-65
2023/03/20 00:58:00;;;;;;;60.60;30.20;;;;;;;13.04;33.14;100520.48;108077;1254;71625;-65
2023/03/20 01:00:36;;;;;;;74.00;35.20;;;;;;;13.10;33.11;100523.09;108238;1254;72941;-65
2023/03/20 01:03:18;;;;;;;68.20;33.20;;;;;;;13.15;33.17;100521.65;108127;1253;61279;-66
2023/03/20 01:05:49;;;;;;;80.20;33.80;;;;;;;13.08;33.22;100529.17;108283;1254;146813;-65
2023/03/20 01:09:46;;;;;;;70.40;33.00;;;;;;;9.05;39.98;100541.98;105050;1289;600248;-64
2023/03/20 01:12:15;;;;;;;70.90;32.90;;;;;;;10.65;37.13;100535.73;107519;1264;63256;-65
2023/03/20 01:14:46;;;;;;;67.70;32.30;;;;;;;11.13;36.26;100531.23;107408;1264;60318;-65
2023/03/20 01:17:19;;;;;;;73.40;33.60;;;;;;;11.22;35.97;100522.30;107377;1267;73233;-65
2023/03/20 01:19:48;;;;;;;53.50;26.00;;;;;;;11.47;35.54;100519.52;107346;1267;71589;-66
2023/03/20 01:22:17;;;;;;;55.10;26.20;;;;;;;11.15;36.06;100517.43;107270;1263;153513;-67
2023/03/20 01:24:46;;;;;;;63.60;30.60;;;;;;;11.10;36.20;100520.41;107473;1262;62996;-65
2023/03/20 01:27:16;;;;;;;69.30;31.40;;;;;;;11.35;35.92;100511.67;107408;1263;61669;-66
2023/03/20 01:29:45;;;;;;;73.40;34.60;;;;;;;11.34;36.01;100513.83;107391;1263;73510;-65
2023/03/20 01:32:15;;;;;;;60.20;29.90;;;;;;;11.35;36.03;100515.71;107387;1263;70554;-64
2023/03/20 01:34:46;;;;;;;69.30;31.40;;;;;;;11.37;35.99;100514.58;107337;1263;73781;-65
2023/03/20 01:37:26;;;;;;;72.20;34.50;;;;;;;11.39;35.98;100513.11;107392;1263;62785;-64
2023/03/20 01:39:59;;;;;;;72.70;34.00;;;;;;;11.48;35.90;100515.08;107419;1263;60235;-64
2023/03/20 01:42:27;;;;;;;66.80;29.80;;;;;;;11.47;35.74;100509.31;107594;1260;71754;-64
2023/03/20 01:44:55;;;;;;;71.70;33.00;;;;;;;11.40;35.89;100511.67;107538;1260;69801;-64
2023/03/20 01:47:24;;;;;;;56.30;28.30;;;;;;;11.58;35.63;100506.83;107556;1260;74265;-64
2023/03/20 01:50:31;;;;;;;66.60;29.10;;;;;;;11.61;35.64;100506.55;107510;1260;63049;-65
2023/03/20 01:53:15;;;;;;;57.50;27.20;;;;;;;11.45;35.92;100511.15;107481;1260;59860;-65
2023/03/20 01:55:47;;;;;;;60.00;29.60;;;;;;;11.59;35.71;100511.19;107555;1260;74421;-65
2023/03/20 01:58:21;;;;;;;65.00;30.40;;;;;;;11.54;35.84;100513.11;107574;1260;71569;-64
2023/03/20 02:00:49;;;;;;;62.00;29.40;;;;;;;11.43;35.91;100510.17;107633;1260;73455;-66
2023/03/20 02:03:18;;;;;;;65.10;32.30;;;;;;;11.35;36.04;100518.52;107694;1260;62034;-65
2023/03/20 02:06:05;;;;;;;67.10;31.60;;;;;;;11.44;35.76;100513.98;107686;1259;61547;-67
2023/03/20 02:08:56;;;;;;;71.00;31.00;;;;;;;11.44;35.83;100515.59;107681;1259;74234;-66
2023/03/20 02:11:24;;;;;;;57.50;26.30;;;;;;;11.59;35.78;100513.13;107571;1260;69496;-66
2023/03/20 02:13:54;;;;;;;63.20;30.70;;;;;;;11.35;35.94;100513.09;107573;1260;71223;-65
2023/03/20 02:16:24;;;;;;;64.20;32.10;;;;;;;11.38;36.01;100511.37;107506;1259;62662;-66
2023/03/20 02:19:48;;;;;;;60.10;27.20;;;;;;;11.37;36.05;100516.15;107632;1260;60382;-65
2023/03/20 02:22:40;;;;;;;65.30;30.50;;;;;;;11.41;35.96;100525.19;107642;1260;74189;-65
2023/03/20 02:25:31;;;;;;;71.70;32.80;;;;;;;11.60;35.66;100526.62;107631;1260;71101;-65
2023/03/20 02:28:20;;;;;;;63.50;29.90;;;;;;;11.62;35.48;100523.41;107567;1260;73837;-67
2023/03/20 02:31:04;;;;;;;64.80;31.40;;;;;;;11.73;35.34;100520.73;107612;1261;62731;-66
2023/03/20 02:33:45;;;;;;;75.60;33.00;;;;;;;11.62;35.41;100514.45;107603;1260;61561;-66
2023/03/20 02:36:25;;;;;;;69.20;32.30;;;;;;;11.38;35.80;100519.49;107640;1260;74489;-65
2023/03/20 02:38:59;;;;;;;71.30;31.10;;;;;;;11.33;35.90;100523.67;107577;1260;70334;-66
2023/03/20 02:41:50;;;;;;;75.10;33.10;;;;;;;11.28;35.81;100520.35;107628;1260;73735;-67
2023/03/20 02:44:24;;;;;;;70.70;32.50;;;;;;;11.26;35.87;100519.36;107695;1260;62799;-66
2023/03/20 02:47:02;;;;;;;65.80;30.80;;;;;;;11.25;35.76;100516.92;108039;1254;61150;-66
2023/03/20 02:49:53;;;;;;;72.00;33.50;;;;;;;11.40;35.65;100513.78;108114;1254;73064;-64
2023/03/20 02:52:31;;;;;;;70.80;31.50;;;;;;;11.51;35.54;100507.78;108093;1254;69456;-64
2023/03/20 02:55:10;;;;;;;59.30;26.40;;;;;;;11.57;35.41;100504.23;108052;1254;73757;-65
2023/03/20 02:58:10;;;;;;;58.40;30.10;;;;;;;11.65;35.55;100503.08;107973;1254;61673;-64
2023/03/20 03:01:02;;;;;;;65.00;29.90;;;;;;;11.69;35.42;100500.28;108077;1254;61224;-65
2023/03/20 03:03:40;;;;;;;54.30;25.60;;;;;;;11.67;35.55;100495.26;108056;1254;74306;-62
2023/03/20 03:06:30;;;;;;;48.60;23.60;;;;;;;11.87;35.32;100491.75;107943;1254;69639;-62
2023/03/20 03:09:06;;;;;;;67.60;30.40;;;;;;;11.87;35.26;100484.90;108119;1254;72782;-65
2023/03/20 03:11:38;;;;;;;61.70;28.30;;;;;;;11.93;35.25;100482.91;108056;1254;61257;-64
2023/03/20 03:14:06;;;;;;;68.70;32.00;;;;;;;11.86;35.23;100482.80;108097;1254;61494;-66
2023/03/20 03:16:36;;;;;;;67.30;30.50;;;;;;;11.98;35.14;100472.88;108058;1255;73297;-64
2023/03/20 03:19:12;;;;;;;56.50;27.40;;;;;;;11.86;35.14;100469.41;107937;1254;69116;-65
2023/03/20 03:21:41;;;;;;;71.40;31.40;;;;;;;11.55;35.44;100465.61;107941;1254;71796;-64
2023/03/20 03:24:32;;;;;;;68.80;31.60;;;;;;;11.35;35.67;100463.88;108072;1254;62845;-64
2023/03/20 03:27:17;;;;;;;56.00;27.80;;;;;;;11.11;36.07;100464.48;108129;1254;60872;-62
2023/03/20 03:29:56;;;;;;;62.60;30.00;;;;;;;11.15;36.03;100459.99;108064;1254;73376;-64
2023/03/20 03:32:31;;;;;;;70.10;32.10;;;;;;;11.20;35.95;100460.70;108064;1254;69537;-63
2023/03/20 03:35:00;;;;;;;67.00;31.60;;;;;;;11.24;35.93;100457.04;108111;1254;73667;-64
2023/03/20 03:37:38;;;;;;;65.60;30.70;;;;;;;11.66;35.26;100458.55;108248;1254;62910;-61
2023/03/20 03:40:19;;;;;;;65.50;30.40;;;;;;;11.61;35.26;100459.77;108238;1253;59387;-66
2023/03/20 03:42:56;;;;;;;60.60;27.10;;;;;;;11.63;35.17;100463.05;108193;1253;72624;-64
2023/03/20 03:45:30;;;;;;;66.10;29.80;;;;;;;11.61;35.26;100465.02;108222;1253;71524;-64
2023/03/20 03:48:07;;;;;;;63.60;30.10;;;;;;;11.52;35.39;100462.38;108202;1253;73248;-65
2023/03/20 03:50:46;;;;;;;74.40;31.90;;;;;;;11.07;36.11;100463.56;108327;1253;62234;-66
2023/03/20 03:53:28;;;;;;;64.30;30.00;;;;;;;10.98;36.20;100465.14;108314;1253;61177;-66
2023/03/20 03:56:07;;;;;;;61.90;28.90;;;;;;;11.09;36.03;100465.98;108307;1253;74201;-65
2023/03/20 03:58:41;;;;;;;65.50;30.80;;;;;;;11.12;36.07;100469.05;108186;1254;69360;-65
2023/03/20 04:01:10;;;;;;;68.70;30.00;;;;;;;10.98;36.33;100469.35;108118;1258;72814;-66
2023/03/20 04:03:49;;;;;;;63.40;28.80;;;;;;;11.01;36.13;100474.68;108241;1254;61272;-65
2023/03/20 04:06:18;;;;;;;64.30;29.90;;;;;;;11.24;35.94;100466.20;108302;1253;59626;-64
2023/03/20 04:08:46;;;;;;;63.90;29.60;;;;;;;11.41;35.55;100460.83;108116;1254;71169;-64
2023/03/20 04:11:16;;;;;;;63.50;30.90;;;;;;;11.16;35.85;100462.92;108333;1254;71582;-65
2023/03/20 04:13:46;;;;;;;68.50;29.10;;;;;;;11.29;35.94;100463.71;108168;1254;72821;-66
2023/03/20 04:16:15;;;;;;;64.50;30.40;;;;;;;11.19;35.96;100465.10;108275;1254;62710;-66
2023/03/20 04:18:46;;;;;;;63.60;29.90;;;;;;;11.22;36.00;100467.64;108264;1252;59516;-66
2023/03/20 04:21:15;;;;;;;72.70;31.80;;;;;;;11.16;36.07;100471.90;108299;1252;73222;-66
2023/03/20 04:23:44;;;;;;;55.60;26.50;;;;;;;10.98;36.54;100474.94;108160;1252;71264;-65
2023/03/20 04:26:12;;;;;;;72.10;30.60;;;;;;;11.12;36.43;100472.91;108270;1253;72687;-67
2023/03/20 04:28:41;;;;;;;77.20;33.40;;;;;;;11.58;35.90;100470.10;108200;1254;62949;-65
2023/03/20 04:31:21;;;;;;;61.90;27.50;;;;;;;12.04;35.28;100471.61;108206;1253;61123;-65
2023/03/20 04:34:09;;;;;;;62.50;29.00;;;;;;;12.75;35.20;100471.64;108184;1254;73907;-67
2023/03/20 04:36:44;;;;;;;76.90;36.40;;;;;;;12.64;36.25;100473.13;108210;1253;69588;-64
2023/03/20 04:39:15;;;;;;;74.70;32.90;;;;;;;13.30;35.95;100473.27;108057;1254;73210;-67
2023/03/20 04:41:43;;;;;;;75.90;33.90;;;;;;;13.27;36.38;100473.73;108197;1254;63087;-66
2023/03/20 04:44:13;;;;;;;62.20;32.00;;;;;;;13.64;36.20;100467.20;108214;1254;60954;-67
2023/03/20 04:46:44;;;;;;;56.50;31.30;;;;;;;14.35;35.71;100464.48;108053;1254;73966;-66
2023/03/20 04:49:22;;;;;;;60.10;29.40;;;;;;;14.99;35.37;100463.15;108266;1254;69196;-66
2023/03/20 04:51:50;;;;;;;55.30;29.20;;;;;;;15.69;34.68;100462.08;108089;1254;73645;-64
2023/03/20 04:54:29;;;;;;;58.60;28.90;;;;;;;16.27;34.19;100463.56;108076;1254;61963;-65
2023/03/20 04:56:57;;;;;;;49.60;26.40;;;;;;;16.57;33.62;100461.16;108180;1254;61248;-67
2023/03/20 04:59:26;;;;;;;51.30;25.60;;;;;;;16.72;33.02;100460.32;108216;1253;72960;-66
2023/03/20 05:01:57;;;;;;;;;;;;;;;16.93;32.38;100455.41;108245;1253;71534;-67
2023/03/20 05:04:26;;;;;;;54.10;27.30;;;;;;;16.94;32.28;100453.96;108276;1253;72524;-66
2023/03/20 05:06:55;;;;;;;48.90;25.10;;;;;;;17.31;32.31;100453.35;108119;1253;61336;-67
2023/03/20 05:09:29;;;;;;;46.70;26.00;;;;;;;17.57;32.27;100460.33;108298;1253;60595;-66
2023/03/20 05:12:01;;;;;;;49.80;27.30;;;;;;;18.22;31.75;100462.00;108268;1256;73427;-66
2023/03/20 05:14:42;;;;;;;44.30;25.30;;;;;;;18.87;30.99;100459.61;108237;1254;69681;-66
2023/03/20 05:17:35;;;;;;;50.70;28.90;;;;;;;19.41;29.98;100453.98;107978;1254;73443;-67
2023/03/20 05:20:21;;;;;;;48.10;28.30;;;;;;;20.20;29.13;100452.92;108248;1253;61704;-66
2023/03/20 05:23:03;;;;;;;52.50;29.10;;;;;;;20.55;28.79;100451.48;108135;1254;61514;-66
2023/03/20 05:25:46;;;;;;;57.10;30.70;;;;;;;21.47;27.69;100449.40;108220;1253;74412;-67
2023/03/20 05:28:38;;;;;;;54.00;33.30;;;;;;;21.86;27.18;100450.42;108261;1254;71428;-64
2023/03/20 05:31:23;;;;;;;60.90;36.80;;;;;;;21.57;27.41;100452.92;108304;1252;72519;-67
2023/03/20 05:34:16;;;;;;;65.70;39.20;;;;;;;21.94;27.38;100453.95;108280;1252;61560;-67
2023/03/20 05:36:47;;;;;;;71.10;41.00;;;;;;;22.75;26.37;100454.20;108243;1252;60994;-67
2023/03/20 05:39:44;;;;;;;71.70;40.90;;;;;;;23.50;25.40;100448.25;108236;1253;75311;-67
2023/03/20 05:42:21;;;;;;;69.60;41.30;;;;;;;23.96;25.07;100447.66;108151;1253;71028;-67
2023/03/20 05:45:10;;;;;;;72.60;42.20;;;;;;;24.82;24.40;100447.48;108169;1253;73082;-67
2023/03/20 05:48:10;;;;;;;75.60;43.00;;;;;;;25.12;23.99;100450.29;107902;1253;61362;-67
2023/03/20 05:50:41;;;;;;;64.40;40.40;;;;;;;25.52;23.35;100449.21;108343;1253;61565;-67
2023/03/20 05:53:35;;;;;;;81.40;45.10;;;;;;;25.91;22.82;100449.56;108020;1252;74689;-65
2023/03/20 05:56:22;;;;;;;76.90;46.90;;;;;;;26.14;22.61;100451.07;108258;1253;71440;-67
2023/03/20 05:59:20;;;;;;;76.20;45.60;;;;;;;26.33;22.31;100448.66;107673;1262;72565;-66
2023/03/20 06:02:21;;;;;;;76.60;46.40;;;;;;;27.08;21.41;100446.98;108016;1252;60332;-67
2023/03/20 06:04:55;;;;;;;86.50;49.00;;;;;;;26.96;21.58;100450.88;108235;1253;61212;-67
2023/03/20 06:07:28;;;;;;;85.00;46.70;;;;;;;26.60;21.99;100448.70;108224;1252;74596;-67
2023/03/20 06:10:06;;;;;;;76.90;45.80;;;;;;;26.90;21.47;100446.44;108188;1253;71008;-67
2023/03/20 06:12:35;;;;;;;77.20;48.10;;;;;;;27.41;21.00;100446.54;108264;1254;72090;-66
2023/03/20 06:15:05;;;;;;;78.60;45.40;;;;;;;27.18;21.04;100444.77;108235;1255;61258;-67
2023/03/20 06:17:38;;;;;;;86.50;50.30;;;;;;;27.10;20.73;100449.55;108097;1252;61261;-67
2023/03/20 06:20:08;;;;;;;81.80;48.60;;;;;;;26.85;20.62;100451.31;108219;1254;74780;-67
2023/03/20 06:22:37;;;;;;;78.60;47.70;;;;;;;26.89;20.46;100452.67;108208;1253;70669;-66
2023/03/20 06:25:06;;;;;;;77.40;46.50;;;;;;;27.40;20.04;100452.52;108229;1252;73683;-68
2023/03/20 06:27:39;;;;;;;75.00;45.30;;;;;;;26.81;20.23;100462.80;108218;1253;60450;-66
2023/03/20 06:30:09;;;;;;;76.60;47.30;;;;;;;27.11;20.37;100461.13;108118;1253;61257;-67
2023/03/20 06:32:42;;;;;;;74.10;45.20;;;;;;;27.45;20.16;100454.79;108066;1253;74240;-67
2023/03/20 06:35:12;;;;;;;71.10;41.10;;;;;;;27.74;19.90;100457.31;108252;1256;70469;-67
2023/03/20 06:37:44;;;;;;;72.90;44.00;;;;;;;27.69;20.01;100458.76;108109;1253;73633;-69
2023/03/20 06:40:16;;;;;;;71.00;43.60;;;;;;;27.77;20.09;100457.94;108225;1252;61255;-67
2023/03/20 06:42:48;;;;;;;73.40;44.70;;;;;;;28.18;19.69;100455.23;108307;1253;61440;-66
2023/03/20 06:45:17;;;;;;;69.20;42.60;;;;;;;28.59;19.40;100456.38;108213;1253;75086;-68
2023/03/20 06:47:55;;;;;;;67.90;44.60;;;;;;;28.65;18.96;100455.69;108308;1254;71484;-67
2023/03/20 06:50:23;;;;;;;65.60;42.30;;;;;;;28.74;19.18;100452.19;108434;1253;73654;-67
2023/03/20 06:52:52;;;;;;;57.40;37.90;;;;;;;28.92;19.13;100454.92;108277;1252;60351;-67
2023/03/20 06:55:42;;;;;;;61.00;38.70;;;;;;;29.20;18.34;100455.29;108347;1252;60589;-68
2023/03/20 06:58:11;;;;;;;59.70;40.60;;;;;;;29.14;18.60;100455.89;108330;1252;75890;-67
2023/03/20 07:00:45;;;;;;;63.10;40.00;;;;;;;29.54;18.48;100451.52;108320;1254;71194;-67
2023/03/20 07:03:15;;;;;;;65.50;41.20;;;;;;;30.08;18.17;100446.34;108262;1253;73544;-67
2023/03/20 07:05:46;;;;;;;64.30;41.10;;;;;;;29.92;17.99;100445.61;108280;1253;60315;-68
2023/03/20 07:08:14;;;;;;;56.60;38.90;;;;;;;29.54;18.50;100449.14;108208;1253;60949;-67
2023/03/20 07:10:42;;;;;;;61.40;39.80;;;;;;;29.63;18.19;100448.77;108359;1253;74586;-67
2023/03/20 07:13:13;;;;;;;66.80;40.40;;;;;;;29.78;18.23;100446.65;108291;1253;70455;-67
2023/03/20 07:16:00;;;;;;;63.30;40.20;;;;;;;29.60;18.39;100446.83;108316;1252;71136;-66
2023/03/20 07:18:37;;;;;;;56.50;37.40;;;;;;;29.83;18.24;100445.33;108279;1253;61202;-67
2023/03/20 07:21:07;;;;;;;63.90;38.50;;;;;;;29.74;18.39;100443.36;108301;1254;61383;-68
2023/03/20 07:23:37;;;;;;;62.70;38.50;;;;;;;29.80;17.79;100442.27;108366;1254;74751;-67
2023/03/20 07:26:05;;;;;;;61.90;40.00;;;;;;;29.97;17.97;100444.89;108317;1254;70636;-66
2023/03/20 07:28:37;;;;;;;53.90;35.40;;;;;;;30.08;17.75;100441.81;108265;1251;73579;-66
2023/03/20 07:31:24;;;;;;;53.60;32.00;;;;;;;30.35;17.47;100443.77;108272;1251;62025;-68
2023/03/20 07:34:16;;;;;;;52.20;33.40;;;;;;;30.77;17.16;100439.64;108270;1251;60859;-69
2023/03/20 07:36:46;;;;;;;52.90;32.20;;;;;;;31.18;17.18;100435.93;108274;1251;73015;-67
2023/03/20 07:39:17;;;;;;;43.90;29.30;;;;;;;31.15;16.72;100441.86;108265;1251;70433;-67
2023/03/20 07:41:53;;;;;;;63.60;32.60;;;;;;;31.16;16.58;100442.81;108261;1251;72839;-68
2023/03/20 07:44:35;;;;;;;49.20;32.50;;;;;;;31.18;16.76;100438.99;108298;1251;59887;-68
2023/03/20 07:47:08;;;;;;;37.60;25.50;;;;;;;31.36;16.67;100435.36;108304;1251;61048;-68
2023/03/20 07:49:37;;;;;;;40.70;26.50;;;;;;;31.73;16.36;100430.15;108319;1251;74208;-66
2023/03/20 07:52:08;;;;;;;42.40;26.00;;;;;;;31.74;15.98;100430.05;108377;1251;70554;-67
2023/03/20 07:54:36;;;;;;;34.00;23.10;;;;;;;31.40;16.10;100425.03;108325;1251;74115;-68
2023/03/20 07:57:05;;;;;;;42.50;27.60;;;;;;;31.07;16.37;100421.47;108338;1251;60431;-68
2023/03/20 07:59:34;;;;;;;42.50;26.60;;;;;;;30.93;16.45;100423.56;108371;1251;60766;-67
2023/03/20 08:02:03;;;;;;;45.40;26.60;;;;;;;30.73;16.47;100421.07;108335;1251;75217;-66
2023/03/20 08:04:34;;;;;;;33.70;21.30;;;;;;;31.12;16.43;100416.29;108338;1251;70022;-68
2023/03/20 08:07:03;;;;;;;33.50;20.40;;;;;;;31.37;16.27;100408.96;108295;1251;73484;-67
2023/03/20 08:09:31;;;;;;;33.80;20.40;;;;;;;31.91;15.90;100411.52;108297;1251;60583;-66
2023/03/20 08:12:00;;;;;;;32.50;21.60;;;;;;;32.12;15.55;100408.50;108427;1251;60433;-69
2023/03/20 08:14:29;;;;;;;35.60;21.60;;;;;;;32.38;15.27;100411.95;108298;1250;75464;-66
2023/03/20 08:16:58;;;;;;;19.30;11.30;;;;;;;32.57;14.91;100414.73;108382;1251;71049;-68
2023/03/20 08:19:40;;;;;;;28.40;17.20;;;;;;;32.46;14.67;100410.40;108327;1251;74015;-68
2023/03/20 08:22:09;;;;;;;25.60;15.30;;;;;;;32.26;15.12;100414.70;108343;1251;61628;-67
2023/03/20 08:24:37;;;;;;;18.80;11.60;;;;;;;32.10;14.71;100421.66;108297;1251;60376;-67
2023/03/20 08:27:07;;;;;;;19.30;12.10;;;;;;;32.09;14.27;100420.91;108316;1252;74243;-66
2023/03/20 08:29:36;;;;;;;21.20;12.60;;;;;;;31.80;14.80;100421.30;108233;1253;71466;-67
2023/03/20 08:32:05;;;;;;;19.50;12.10;;;;;;;31.73;15.18;100428.05;108286;1252;73692;-67
2023/03/20 08:34:34;;;;;;;29.10;13.50;;;;;;;31.75;15.19;100416.65;108333;1253;61663;-69
2023/03/20 08:37:03;;;;;;;23.10;11.90;;;;;;;31.67;15.30;100421.23;108272;1254;61368;-67
2023/03/20 08:39:34;;;;;;;21.20;11.80;;;;;;;31.85;15.08;100421.98;108281;1254;74153;-66
2023/03/20 08:42:02;;;;;;;17.40;10.20;;;;;;;32.23;14.80;100420.02;108330;1254;71554;-67
2023/03/20 08:44:33;;;;;;;;;;;;;;;32.06;14.66;100421.02;108298;1253;72178;-69
2023/03/20 08:47:02;;;;;;;19.90;11.10;;;;;;;31.90;14.82;100415.36;108305;1256;59744;-67
2023/03/20 08:49:30;;;;;;;15.00;9.60;;;;;;;32.11;14.86;100413.39;108343;1252;61544;-67
2023/03/20 08:51:59;;;;;;;15.20;8.80;;;;;;;32.37;14.46;100409.02;108284;1256;73593;-69
2023/03/20 08:54:28;;;;;;;16.80;9.40;;;;;;;32.42;14.13;100405.08;108346;1254;70705;-69
2023/03/20 08:57:01;;;;;;;16.60;10.40;;;;;;;32.39;14.10;100400.46;108376;1252;72933;-68
2023/03/20 08:59:30;;;;;;;16.10;8.90;;;;;;;32.18;14.39;100395.11;108305;1253;60715;-68
2023/03/20 09:01:58;;;;;;;16.40;10.40;;;;;;;31.72;14.22;100395.12;108370;1253;61079;-68
2023/03/20 09:04:28;;;;;;;13.20;9.00;;;;;;;31.82;14.18;100394.58;108435;1254;75060;-68
2023/03/20 09:06:56;;;;;;;14.50;9.30;;;;;;;31.73;14.27;100400.79;108517;1253;70093;-67
2023/03/20 09:09:28;;;;;;;14.60;9.80;;;;;;;31.38;14.52;100398.63;108453;1256;72695;-67
2023/03/20 09:11:57;;;;;;;19.40;10.80;;;;;;;31.90;14.19;100388.20;108410;1254;60367;-66
2023/03/20 09:14:26;;;;;;;24.10;13.10;;;;;;;31.97;14.46;100386.89;108369;1253;60297;-68
2023/03/20 09:16:54;;;;;;;18.30;11.70;;;;;;;31.91;14.44;100377.80;108300;1252;72810;-68
2023/03/20 09:19:22;;;;;;;19.60;12.10;;;;;;;31.84;14.57;100376.88;108320;1252;71247;-67
2023/03/20 09:21:51;;;;;;;20.60;12.30;;;;;;;31.94;14.56;100373.60;108283;1254;71242;-69
2023/03/20 09:24:19;;;;;;;21.20;12.50;;;;;;;32.47;14.44;100363.64;108255;1256;60997;-68
2023/03/20 09:26:47;;;;;;;30.90;14.30;;;;;;;32.63;14.23;100361.01;108296;1253;60595;-67
2023/03/20 09:29:15;;;;;;;24.10;13.30;;;;;;;33.33;13.80;100362.27;108371;1252;74032;-67
2023/03/20 09:31:43;;;;;;;21.50;12.20;;;;;;;33.61;13.52;100353.56;108305;1256;70122;-68
2023/03/20 09:34:11;;;;;;;18.50;11.90;;;;;;;32.93;13.95;100355.46;108312;1252;72365;-69
2023/03/20 09:36:39;;;;;;;21.50;12.50;;;;;;;33.03;13.83;100356.92;108302;1253;60414;-67
2023/03/20 09:39:07;;;;;;;26.60;14.80;;;;;;;33.06;13.83;100354.52;108276;1254;61577;-67
2023/03/20 09:41:38;;;;;;;21.90;13.80;;;;;;;33.33;13.91;100356.52;108223;1252;74775;-67
2023/03/20 09:44:35;;;;;;;24.00;13.50;;;;;;;33.03;13.90;100351.46;108279;1253;71436;-68
2023/03/20 09:47:13;;;;;;;19.70;12.30;;;;;;;33.22;13.94;100351.11;108194;1254;73039;-67
2023/03/20 09:50:01;;;;;;;24.10;15.00;;;;;;;33.67;13.62;100351.48;108252;1252;60538;-68
2023/03/20 09:52:33;;;;;;;20.50;13.40;;;;;;;33.94;13.27;100356.11;108313;1253;61355;-68
2023/03/20 09:55:06;;;;;;;19.80;12.40;;;;;;;33.87;13.40;100349.27;108323;1252;75201;-68
2023/03/20 09:57:38;;;;;;;19.10;12.40;;;;;;;33.69;13.32;100348.61;108300;1253;70325;-66
2023/03/20 10:00:18;;;;;;;17.60;11.90;;;;;;;33.18;13.60;100346.64;108258;1254;73708;-67
2023/03/20 10:03:01;;;;;;;19.10;12.10;;;;;;;32.97;13.64;100339.33;108331;1256;61064;-67
2023/03/20 10:05:44;;;;;;;24.50;13.80;;;;;;;32.57;13.97;100340.55;108195;1256;61000;-68
2023/03/20 10:08:17;;;;;;;20.40;12.70;;;;;;;31.77;14.64;100330.52;108284;1253;74844;-70
2023/03/20 10:11:15;;;;;;;23.20;13.40;;;;;;;31.83;14.58;100327.70;108318;1254;71232;-70
2023/03/20 10:14:17;;;;;;;19.50;13.40;;;;;;;31.30;14.81;100331.95;108330;1252;72530;-68
2023/03/20 10:17:04;;;;;;;21.60;13.70;;;;;;;31.52;14.85;100326.73;108317;1253;60414;-67
2023/03/20 10:19:48;;;;;;;20.60;11.60;;;;;;;31.90;14.65;100318.30;108318;1253;60372;-67
2023/03/20 10:22:25;;;;;;;26.90;16.10;;;;;;;32.18;14.45;100316.91;108188;1253;74208;-68
2023/03/20 10:24:55;;;;;;;23.70;11.70;;;;;;;32.22;14.21;100313.87;108296;1252;71214;-69
2023/03/20 10:27:35;;;;;;;21.50;12.50;;;;;;;32.36;14.12;100313.36;108240;1251;72966;-69
2023/03/20 10:30:25;;;;;;;19.20;11.00;;;;;;;32.02;14.04;100305.50;108341;1251;60293;-68
2023/03/20 10:39:29;;;;;;;48.80;22.90;;;;;;;31.35;14.39;100299.84;107117;1267;68895;-67
2023/03/20 10:42:00;;;;;;;19.50;10.40;;;;;;;31.62;14.41;100295.55;107229;1267;73077;-67
2023/03/20 10:44:35;;;;;;;15.20;9.40;;;;;;;31.03;14.45;100290.92;107140;1265;61371;-67
2023/03/20 10:47:05;;;;;;;17.10;10.50;;;;;;;31.19;14.40;100280.02;107184;1265;61578;-67
2023/03/20 10:49:48;;;;;;;17.80;10.30;;;;;;;31.41;14.32;100277.48;107194;1267;73923;-67
2023/03/20 10:52:28;;;;;;;19.20;11.20;;;;;;;32.01;14.29;100274.20;107157;1267;71408;-67
2023/03/20 10:55:07;;;;;;;17.80;10.90;;;;;;;32.38;13.78;100272.47;107198;1267;73931;-67
2023/03/20 10:57:40;;;;;;;19.50;11.10;;;;;;;32.16;13.87;100263.41;107134;1265;61341;-66
2023/03/20 11:00:16;;;;;;;22.00;12.90;;;;;;;31.83;13.88;100262.60;107208;1266;61520;-66
2023/03/20 11:02:45;;;;;;;18.20;11.40;;;;;;;31.46;14.26;100258.04;107280;1265;74556;-67
2023/03/20 11:05:24;;;;;;;23.90;12.00;;;;;;;31.26;14.35;100256.46;107285;1265;71612;-67
2023/03/20 11:08:10;;;;;;;20.30;12.50;;;;;;;31.70;14.26;100257.01;107280;1265;72537;-67
2023/03/20 11:10:40;;;;;;;22.40;12.10;;;;;;;31.39;14.52;100252.14;107353;1267;60353;-67
2023/03/20 11:13:22;;;;;;;19.90;11.90;;;;;;;31.07;14.62;100248.15;107334;1264;61256;-66
2023/03/20 11:15:53;;;;;;;22.40;12.40;;;;;;;30.43;15.50;100244.77;107237;1267;73028;-66
2023/03/20 11:18:24;;;;;;;22.60;12.60;;;;;;;30.55;15.19;100247.05;107181;1267;70613;-67
2023/03/20 11:20:56;;;;;;;24.60;15.50;;;;;;;30.68;15.30;100245.50;107187;1270;72884;-67
2023/03/20 11:23:32;;;;;;;19.50;12.30;;;;;;;30.79;15.17;100237.83;107180;1267;61128;-66
2023/03/20 11:26:03;;;;;;;23.70;14.60;;;;;;;30.71;15.37;100229.75;107202;1267;60227;-67
2023/03/20 11:28:37;;;;;;;25.00;15.40;;;;;;;31.26;15.10;100231.44;107151;1267;73129;-68
2023/03/20 11:31:12;;;;;;;23.00;14.90;;;;;;;31.12;15.29;100220.12;107185;1267;70092;-69
2023/03/20 11:33:45;;;;;;;24.90;14.90;;;;;;;30.97;15.51;100220.09;107174;1267;71248;-70
2023/03/20 11:36:22;;;;;;;28.70;15.90;;;;;;;30.87;15.51;100217.33;107157;1267;61106;-67
2023/03/20 11:38:53;;;;;;;24.20;15.20;;;;;;;30.41;15.93;100214.89;107318;1265;61437;-67
2023/03/20 11:41:25;;;;;;;25.00;15.70;;;;;;;30.27;15.77;100216.39;107260;1265;74767;-67
2023/03/20 11:43:53;;;;;;;22.60;13.50;;;;;;;30.61;15.65;100212.84;107278;1265;71539;-68
2023/03/20 11:46:22;;;;;;;24.20;15.30;;;;;;;30.34;15.98;100215.40;107200;1265;70851;-68